Time;durP1;ratioP1;P1;durP2;ratioP2;P2;SDS_P1;SDS_P2;PMS_P1;PMS_P2;Temp;Humidity;BMP_temperature;BMP_pressure;BME280_temperature;BME280_humidity;BME280_pressure;Samples;Min_cycle;Max_cycle;Signal;HPM_P1;HPM_P2
2021/06/28 00:02:45;;;;;;;;;;;19.90;99.90;;;19.18;67.89;95622.50;10432890;28;2132;-82
2021/06/28 00:07:48;;;;;;;;;;;19.90;99.90;;;19.38;66.33;95618.97;10447749;28;1888;-82
2021/06/28 00:12:51;;;;;;;;;;;20.10;99.90;;;19.10;67.06;95613.25;10452565;28;1923;-81
2021/06/28 00:17:53;;;;;;;;;;;20.10;99.90;;;19.24;66.16;95607.53;10460229;28;1995;-81
2021/06/28 00:23:00;;;;;;;;;;;20.00;99.90;;;19.01;66.23;95592.66;10441593;28;1985;-81
2021/06/28 00:28:03;;;;;;;;;;;20.00;99.90;;;18.97;66.61;95597.97;10484202;28;1635;-81
2021/06/28 00:33:06;;;;;;;;;;;19.90;99.90;;;18.67;67.08;95605.38;10484652;28;1928;-79
2021/06/28 00:38:08;;;;;;;;;;;19.80;99.90;;;19.15;65.95;95604.91;10457865;28;2088;-78
2021/06/28 00:43:11;;;;;;;;;;;19.80;99.90;;;19.01;66.07;95603.53;10448421;28;2036;-82
2021/06/28 00:48:14;;;;;;;;;;;19.90;99.90;;;18.92;66.70;95611.00;10468531;28;1992;-82
2021/06/28 00:53:17;;;;;;;;;;;19.80;99.90;;;19.27;65.26;95606.88;10476374;28;2044;-82
2021/06/28 00:58:19;;;;;;;;;;;19.90;99.90;;;19.17;65.61;95602.63;10495469;28;1912;-81
2021/06/28 01:03:22;;;;;;;;;;;20.00;99.90;;;19.35;65.33;95607.94;10476361;28;2045;-84
2021/06/28 01:08:25;;;;;;;;;;;20.10;99.90;;;19.45;64.89;95605.59;10478754;28;1935;-82
2021/06/28 01:13:27;;;;;;;;;;;20.20;99.90;;;19.40;65.19;95605.81;10484700;28;1961;-82
2021/06/28 01:18:30;;;;;;;;;;;20.20;99.90;;;19.42;65.18;95608.22;10486836;28;2035;-81
2021/06/28 01:23:33;;;;;;;;;;;20.30;99.90;;;19.53;64.81;95608.56;10431025;28;1963;-80
2021/06/28 01:33:58;;;;;;;;;;;20.30;99.90;;;19.20;66.38;95598.44;10443567;28;2050;-81
2021/06/28 01:39:01;;;;;;;;;;;20.20;99.90;;;19.33;66.09;95581.00;10460405;28;1432;-80
2021/06/28 01:44:04;;;;;;;;;;;20.10;99.90;;;19.22;66.59;95571.66;10438179;28;2148;-81
2021/06/28 01:49:06;;;;;;;;;;;20.10;99.90;;;19.27;66.42;95579.63;10463738;28;2105;-79
2021/06/28 01:54:10;;;;;;;;;;;20.10;99.90;;;19.20;66.72;95595.69;10443480;28;1973;-78
2021/06/28 01:59:13;;;;;;;;;;;20.10;99.90;;;19.17;67.08;95607.28;10436276;28;2149;-81
2021/06/28 02:04:15;;;;;;;;;;;20.10;99.90;;;19.17;67.20;95650.88;10458183;28;2115;-81
2021/06/28 02:09:18;;;;;;;;;;;20.00;99.90;;;19.18;67.67;95668.81;10437426;28;2072;-80
2021/06/28 02:14:21;;;;;;;;;;;20.00;99.90;;;19.23;67.55;95665.91;10452421;28;2057;-82
2021/06/28 02:19:25;;;;;;;;;;;20.00;99.90;;;18.92;68.74;95658.09;10456258;28;1275;-82
2021/06/28 02:24:27;;;;;;;;;;;19.90;99.90;;;18.88;69.24;95647.03;10449593;28;2147;-79
2021/06/28 02:29:30;;;;;;;;;;;19.80;99.90;;;18.89;69.09;95645.09;10459474;28;1256;-80
2021/06/28 02:34:33;;;;;;;;;;;19.80;99.90;;;18.56;70.72;95642.22;10452869;28;2115;-81
2021/06/28 02:39:36;;;;;;;;;;;19.70;99.90;;;18.36;71.99;95633.66;10431644;28;2146;-79
2021/06/28 02:44:39;;;;;;;;;;;19.50;99.90;;;18.46;71.86;95623.53;10458232;28;2052;-81
2021/06/28 02:49:41;;;;;;;;;;;19.30;99.90;;;18.46;71.97;95626.28;10452794;28;2179;-81
2021/06/28 02:54:44;;;;;;;;;;;19.40;99.90;;;18.56;71.88;95629.41;10434089;28;2020;-80
2021/06/28 02:59:47;;;;;;;;;;;19.40;99.90;;;18.35;72.64;95631.28;10445193;28;2042;-81
2021/06/28 03:04:50;;;;;;;;;;;19.30;99.90;;;18.59;72.15;95631.47;10443422;28;1353;-80
2021/06/28 03:09:53;;;;;;;;;;;19.30;99.90;;;18.57;72.01;95627.47;10443842;28;2201;-81
2021/06/28 03:14:55;;;;;;;;;;;19.40;99.90;;;18.36;73.94;95611.88;10458391;28;2080;-82
2021/06/28 03:19:58;;;;;;;;;;;19.40;99.90;;;18.44;73.49;95612.16;10462940;28;2077;-81
2021/06/28 03:25:01;;;;;;;;;;;19.30;99.90;;;18.30;74.62;95624.06;10459000;28;2080;-80
2021/06/28 03:30:04;;;;;;;;;;;19.20;99.90;;;18.43;73.93;95624.19;10459561;28;2087;-82
2021/06/28 03:35:07;;;;;;;;;;;19.20;99.90;;;18.47;73.95;95633.31;10445909;28;2151;-80
2021/06/28 03:40:09;;;;;;;;;;;19.30;99.90;;;18.55;73.29;95632.47;10466034;28;2183;-82
2021/06/28 03:45:12;;;;;;;;;;;19.40;99.90;;;18.84;72.64;95629.78;10472801;28;2155;-82
2021/06/28 03:50:15;;;;;;;;;;;19.40;99.90;;;18.87;72.57;95639.19;10469490;28;2547;-81
2021/06/28 03:55:18;;;;;;;;;;;19.60;99.90;;;18.97;72.61;95636.09;10492280;28;1975;-82
2021/06/28 04:00:20;;;;;;;;;;;19.80;99.90;;;19.43;70.55;95635.13;10478528;28;1589;-81
2021/06/28 04:05:24;;;;;;;;;;;20.00;99.90;;;19.70;69.73;95646.63;10477228;28;2178;-79
2021/06/28 04:10:27;;;;;;;;;;;20.20;99.90;;;19.97;68.60;95650.69;10478332;28;1771;-81
2021/06/28 04:15:30;;;;;;;;;;;20.50;99.90;;;20.30;67.33;95652.63;10464044;28;2012;-81
2021/06/28 04:20:32;;;;;;;;;;;20.80;99.90;;;20.58;66.39;95652.78;10492251;28;2074;-79
2021/06/28 04:25:35;;;;;;;;;;;21.10;99.90;;;20.80;65.37;95649.59;10480431;28;1766;-82
2021/06/28 04:30:39;;;;;;;;;;;21.40;99.90;;;20.87;65.55;95644.38;10472303;28;2281;-79
2021/06/28 04:35:41;;;;;;;;;;;21.50;99.90;;;21.03;65.10;95642.53;10479545;28;2101;-81
2021/06/28 04:40:45;;;;;;;;;;;21.70;99.90;;;21.29;64.06;95635.91;10489851;28;2008;-82
2021/06/28 04:45:48;;;;;;;;;;;21.90;99.90;;;21.27;63.58;95641.69;10495293;28;2112;-80
2021/06/28 04:50:51;;;;;;;;;;;22.00;99.90;;;21.09;65.35;95642.31;10490049;28;2206;-81
2021/06/28 04:55:54;;;;;;;;;;;22.00;99.90;;;21.51;63.49;95656.50;10468695;28;2163;-82
2021/06/28 05:00:57;;;;;;;;;;;22.10;99.90;;;21.59;63.49;95650.88;10472415;28;2074;-80
2021/06/28 05:05:59;;;;;;;;;;;22.30;99.90;;;21.90;62.47;95649.38;10465595;28;2113;-80
2021/06/28 05:11:02;;;;;;;;;;;22.50;99.90;;;22.33;61.15;95653.28;10470504;28;2115;-80
2021/06/28 05:16:05;;;;;;;;;;;22.70;99.90;;;22.39;60.92;95643.66;10442159;28;2182;-81
2021/06/28 05:21:08;;;;;;;;;;;22.90;99.90;;;22.46;60.64;95652.09;10464678;28;2101;-80
2021/06/28 05:26:11;;;;;;;;;;;23.10;99.90;;;22.69;60.28;95648.72;10471634;28;2096;-81
2021/06/28 05:31:13;;;;;;;;;;;23.20;99.90;;;23.01;59.63;95647.56;10461500;28;2044;-82
2021/06/28 05:36:16;;;;;;;;;;;23.40;99.90;;;22.99;59.53;95644.38;10472642;28;2100;-80
2021/06/28 05:41:19;;;;;;;;;;;23.50;99.90;;;23.27;58.79;95636.00;10445253;28;2110;-81
2021/06/28 05:46:22;;;;;;;;;;;23.60;99.90;;;23.46;57.86;95641.50;10470236;28;2261;-79
2021/06/28 05:51:25;;;;;;;;;;;23.90;99.90;;;23.69;57.17;95632.63;10459446;28;2096;-79
2021/06/28 05:56:27;;;;;;;;;;;24.00;99.90;;;23.80;56.52;95635.59;10466427;28;2073;-78
2021/06/28 06:01:30;;;;;;;;;;;24.20;99.90;;;23.88;56.02;95631.81;10461289;28;2265;-80
2021/06/28 06:06:33;;;;;;;;;;;24.40;99.90;;;23.98;55.96;95631.22;10466181;28;2174;-80
2021/06/28 06:11:36;;;;;;;;;;;24.60;99.90;;;24.16;55.72;95631.56;10461939;28;2025;-81
2021/06/28 06:16:38;;;;;;;;;;;24.60;99.90;;;24.10;55.50;95633.78;10460550;28;2261;-82
2021/06/28 06:21:41;;;;;;;;;;;24.70;99.90;;;24.13;54.46;95649.56;10464956;28;2111;-81
2021/06/28 06:26:44;;;;;;;;;;;24.70;99.90;;;24.48;53.83;95651.38;10436662;28;2180;-81
2021/06/28 06:31:47;;;;;;;;;;;24.90;99.90;;;24.70;52.96;95653.34;10460447;28;2151;-78
2021/06/28 06:36:50;;;;;;;;;;;25.00;99.90;;;24.68;53.54;95658.41;10442266;28;2195;-79
2021/06/28 06:41:52;;;;;;;;;;;25.20;99.90;;;24.96;52.42;95666.34;10437117;28;2069;-79
2021/06/28 06:46:55;;;;;;;;;;;25.40;99.90;;;25.08;52.04;95662.63;10464249;28;2088;-79
2021/06/28 06:51:58;;;;;;;;;;;25.60;99.90;;;25.29;50.88;95667.66;10458254;28;2167;-82
2021/06/28 06:57:01;;;;;;;;;;;25.70;99.90;;;25.18;51.10;95664.72;10465317;28;2029;-80
2021/06/28 07:02:03;;;;;;;;;;;25.60;99.90;;;24.90;51.33;95667.00;10458713;28;2119;-77
2021/06/28 07:07:06;;;;;;;;;;;25.60;99.90;;;25.41;50.13;95672.13;10454562;28;2029;-81
2021/06/28 07:12:09;;;;;;;;;;;25.80;99.90;;;25.73;49.01;95662.38;10460063;28;2147;-82
2021/06/28 07:17:13;;;;;;;;;;;26.00;99.90;;;25.57;48.42;95665.28;10460010;28;2110;-81
2021/06/28 07:22:16;;;;;;;;;;;26.20;99.90;;;25.31;49.68;95646.84;10463188;28;2023;-82
2021/06/28 07:27:18;;;;;;;;;;;26.10;99.90;;;25.64;48.94;95650.84;10452848;28;2079;-79
2021/06/28 07:32:21;;;;;;;;;;;26.30;99.90;;;25.52;47.04;95640.06;10444535;28;2129;-82
2021/06/28 07:37:24;;;;;;;;;;;26.30;99.10;;;26.03;46.42;95636.78;10461478;28;2363;-81
2021/06/28 07:42:27;;;;;;;;;;;26.50;99.80;;;26.30;46.80;95630.00;10461923;28;2092;-81
2021/06/28 07:47:30;;;;;;;;;;;26.80;99.90;;;26.84;46.35;95636.78;10456833;28;2107;-81
2021/06/28 07:52:34;;;;;;;;;;;27.10;99.90;;;26.59;47.47;95641.28;10459835;28;2181;-81
2021/06/28 07:57:37;;;;;;;;;;;27.30;99.90;;;26.00;46.54;95637.53;10460940;28;1947;-80
2021/06/28 08:02:40;;;;;;;;;;;27.30;97.20;;;26.14;45.88;95630.19;10456007;28;2045;-80
2021/06/28 08:07:46;;;;;;;;;;;27.00;97.40;;;26.35;45.94;95621.38;10463166;28;2110;-81
2021/06/28 08:12:50;;;;;;;;;;;27.00;97.70;;;25.75;47.79;95627.00;10464632;28;2057;-81
2021/06/28 08:17:53;;;;;;;;;;;27.00;97.90;;;26.39;46.81;95626.91;10453773;28;2005;-79
2021/06/28 08:22:56;;;;;;;;;;;27.00;98.60;;;26.46;47.98;95620.69;10473339;28;2240;-79
2021/06/28 08:27:58;;;;;;;;;;;27.20;99.30;;;26.27;47.45;95613.41;10459091;28;2269;-76
2021/06/28 08:33:01;;;;;;;;;;;27.20;97.70;;;26.58;45.71;95607.44;10461715;28;2598;-78
2021/06/28 08:38:04;;;;;;;;;;;27.20;96.40;;;26.27;45.87;95597.66;10466203;28;2091;-81
2021/06/28 08:43:07;;;;;;;;;;;27.40;94.90;;;26.08;47.80;95598.69;10468797;28;2091;-80
2021/06/28 08:48:09;;;;;;;;;;;27.20;96.50;;;26.22;46.55;95594.50;10467483;28;2262;-81
2021/06/28 08:53:14;;;;;;;;;;;27.10;96.30;;;27.08;45.53;95591.28;10470047;28;1843;-80
2021/06/28 08:58:16;;;;;;;;;;;27.50;96.40;;;26.56;44.98;95595.22;10479656;28;2120;-78
2021/06/28 09:03:19;;;;;;;;;;;27.60;93.50;;;26.66;45.56;95600.03;10470583;28;2203;-82
2021/06/28 09:08:23;;;;;;;;;;;27.70;94.20;;;26.47;46.80;95603.03;10467220;28;2100;-81
2021/06/28 09:13:25;;;;;;;;;;;27.60;94.90;;;26.10;47.77;95595.53;10449405;28;2050;-81
2021/06/28 09:18:28;;;;;;;;;;;27.20;96.40;;;26.29;47.24;95606.38;10466230;28;2231;-81
2021/06/28 09:23:31;;;;;;;;;;;27.10;95.70;;;26.28;46.53;95604.78;10463357;28;2003;-82
2021/06/28 09:28:34;;;;;;;;;;;27.10;95.10;;;26.66;46.14;95597.28;10468878;28;1852;-80
2021/06/28 09:33:37;;;;;;;;;;;27.40;95.70;;;26.90;46.13;95598.63;10463423;28;2107;-78
2021/06/28 09:38:40;;;;;;;;;;;27.50;95.70;;;26.33;46.74;95598.91;10461212;28;2170;-80
2021/06/28 09:43:43;;;;;;;;;;;27.40;94.50;;;27.01;44.82;95595.94;10463295;28;2145;-80
2021/06/28 09:48:45;;;;;;;;;;;27.50;94.50;;;26.77;45.58;95600.88;10467706;28;2194;-79
2021/06/28 09:53:48;;;;;;;;;;;27.60;94.00;;;27.28;45.47;95594.56;10474025;28;2094;-81
2021/06/28 09:58:51;;;;;;;;;;;28.00;94.70;;;27.48;46.22;95606.91;10469069;28;2155;-79
2021/06/28 10:03:54;;;;;;;;;;;28.20;95.70;;;27.16;45.60;95590.16;10470711;28;2250;-80
2021/06/28 10:08:57;;;;;;;;;;;28.10;93.40;;;27.55;45.27;95586.81;10461565;28;2188;-80
2021/06/28 10:14:00;;;;;;;;;;;28.20;93.80;;;27.26;44.66;95579.56;10473698;28;2070;-80
2021/06/28 10:19:22;;;;;;;;;;;28.00;92.80;;;27.38;43.79;95582.78;10448463;28;2134;-81
2021/06/28 10:24:25;;;;;;;;;;;28.20;91.50;;;27.02;44.56;95572.69;10472913;28;2065;-81
2021/06/28 10:29:28;;;;;;;;;;;28.00;91.40;;;27.17;44.02;95566.91;10474623;28;2072;-79
2021/06/28 10:34:30;;;;;;;;;;;28.00;91.20;;;27.54;42.39;95557.63;10473360;28;2075;-80
2021/06/28 10:39:33;;;;;;;;;;;28.20;90.10;;;28.41;40.57;95553.94;10464362;28;1992;-79
2021/06/28 10:44:39;;;;;;;;;;;29.00;88.40;;;29.16;39.34;95553.91;10473837;28;2084;-79
2021/06/28 10:49:41;;;;;;;;;;;30.10;87.00;;;28.94;38.79;95542.84;10437143;28;2200;-81
2021/06/28 10:54:44;;;;;;;;;;;30.80;82.80;;;29.27;36.92;95543.59;10450674;28;2248;-80
2021/06/28 10:59:47;;;;;;;;;;;31.40;80.40;;;29.75;36.90;95529.97;10456945;28;2024;-81
2021/06/28 11:04:50;;;;;;;;;;;31.50;80.20;;;29.89;35.93;95515.25;10453907;28;2346;-80
2021/06/28 11:09:53;;;;;;;;;;;31.70;78.80;;;29.04;35.67;95531.00;10451361;28;2233;-79
2021/06/28 11:14:55;;;;;;;;;;;31.50;75.60;;;29.35;35.83;95520.22;10454410;28;2062;-80
2021/06/28 11:19:59;;;;;;;;;;;31.50;76.10;;;29.78;35.74;95500.69;10458790;28;2098;-80
2021/06/28 11:25:02;;;;;;;;;;;32.00;76.50;;;29.57;35.33;95507.09;10458420;28;1868;-79
2021/06/28 11:30:05;;;;;;;;;;;31.90;74.40;;;29.86;34.21;95491.13;10440350;28;2055;-80
2021/06/28 11:35:07;;;;;;;;;;;31.90;73.70;;;29.05;36.04;95488.28;10456307;28;2323;-80
2021/06/28 11:40:10;;;;;;;;;;;31.20;74.30;;;28.83;37.41;95486.75;10456748;28;1986;-79
2021/06/28 11:45:13;;;;;;;;;;;30.20;76.70;;;28.84;36.80;95482.78;10438604;28;1886;-80
2021/06/28 11:50:15;;;;;;;;;;;30.00;77.00;;;28.85;35.11;95480.81;10456743;28;2201;-79
2021/06/28 11:55:18;;;;;;;;;;;29.80;75.00;;;28.89;35.18;95468.56;10457261;28;1906;-80
2021/06/28 12:00:21;;;;;;;;;;;29.90;74.60;;;28.90;37.01;95467.38;10455076;28;1995;-79
2021/06/28 12:05:23;;;;;;;;;;;29.90;76.70;;;28.93;36.84;95472.13;10456253;28;2069;-79
2021/06/28 12:10:32;;;;;;;;;;;30.00;77.00;;;28.72;37.39;95467.41;10470008;28;2101;-83
2021/06/28 12:15:41;;;;;;;;;;;29.80;76.70;;;28.88;37.05;95464.19;10480812;28;2053;-79
2021/06/28 12:21:03;;;;;;;;;;;29.80;76.50;;;28.76;37.13;95464.66;10444287;28;2452;-79
2021/06/28 12:26:06;;;;;;;;;;;29.90;76.10;;;29.08;36.10;95451.53;10461811;28;2073;-81
2021/06/28 12:31:09;;;;;;;;;;;30.00;76.20;;;29.18;37.34;95454.66;10459314;28;2021;-80
2021/06/28 12:36:11;;;;;;;;;;;30.20;77.00;;;28.75;37.97;95452.75;10472792;28;1957;-80
2021/06/28 12:41:16;;;;;;;;;;;30.00;76.90;;;28.90;37.75;95449.97;10466246;28;2112;-79
2021/06/28 12:46:20;;;;;;;;;;;29.10;76.70;;;28.90;37.86;95452.75;10478582;28;2112;-78
2021/06/28 12:51:23;;;;;;;;;;;29.90;76.90;;;29.17;37.87;95451.09;10475421;28;2368;-81
2021/06/28 12:56:26;;;;;;;;;;;30.00;78.10;;;29.26;37.62;95453.41;10466775;28;2188;-78
2021/06/28 13:01:28;;;;;;;;;;;30.20;77.50;;;29.30;38.50;95454.19;10463796;28;2122;-80
2021/06/28 13:06:31;;;;;;;;;;;30.30;78.00;;;29.43;38.90;95458.09;10462732;28;2030;-81
2021/06/28 13:11:34;;;;;;;;;;;30.40;78.60;;;29.31;39.49;95445.47;10464901;28;1856;-80
2021/06/28 13:16:49;;;;;;;;;;;30.30;79.00;;;29.53;39.00;95451.75;10453325;28;2085;-78
2021/06/28 13:21:52;;;;;;;;;;;30.50;78.10;;;29.32;39.14;95454.56;10455657;28;2108;-80
2021/06/28 13:26:55;;;;;;;;;;;30.50;78.20;;;29.66;39.28;95448.50;10447846;28;2374;-79
2021/06/28 13:31:57;;;;;;;;;;;30.70;78.90;;;29.57;39.91;95443.41;10457537;28;2029;-78
2021/06/28 13:37:00;;;;;;;;;;;30.50;79.60;;;29.47;39.43;95441.47;10437543;28;2097;-79
2021/06/28 13:42:03;;;;;;;;;;;30.40;79.00;;;29.23;39.36;95432.09;10463507;28;2010;-81
2021/06/28 13:47:06;;;;;;;;;;;30.40;78.30;;;29.36;39.66;95422.13;10447232;28;1935;-79
2021/06/28 13:52:09;;;;;;;;;;;30.30;79.30;;;29.81;38.93;95425.06;10470805;28;1920;-80
2021/06/28 13:57:12;;;;;;;;;;;30.50;79.20;;;29.72;39.46;95419.19;10457157;28;1910;-79
2021/06/28 14:02:15;;;;;;;;;;;30.60;78.70;;;29.78;38.44;95423.91;10447808;28;2065;-80
2021/06/28 14:07:18;;;;;;;;;;;30.70;77.90;;;29.53;37.85;95428.81;10447501;28;2168;-79
2021/06/28 14:12:20;;;;;;;;;;;30.70;76.30;;;29.51;37.75;95431.97;10458014;28;1861;-80
2021/06/28 14:17:23;;;;;;;;;;;30.50;76.40;;;29.94;37.34;95434.47;10459603;28;2048;-77
2021/06/28 14:22:26;;;;;;;;;;;30.50;76.60;;;29.81;36.58;95423.06;10442403;28;2096;-81
2021/06/28 14:27:29;;;;;;;;;;;30.60;75.30;;;29.50;37.08;95418.50;10458663;28;1836;-80
2021/06/28 14:32:32;;;;;;;;;;;30.60;74.80;;;30.35;36.17;95411.59;10457004;28;2142;-80
2021/06/28 14:37:47;;;;;;;;;;;31.00;75.50;;;29.82;36.65;95416.31;10469150;28;2071;-81
2021/06/28 14:43:04;;;;;;;;;;;31.00;74.50;;;29.93;36.59;95404.38;10440852;28;2032;-80
2021/06/28 14:48:08;;;;;;;;;;;30.90;74.40;;;30.20;36.38;95399.03;10464463;28;1840;-83
2021/06/28 14:53:11;;;;;;;;;;;31.00;74.70;;;30.44;36.55;95391.69;10459398;28;2058;-80
2021/06/28 14:58:13;;;;;;;;;;;31.00;75.10;;;29.99;36.64;95375.84;10458205;28;1980;-80
2021/06/28 15:03:16;;;;;;;;;;;31.10;74.30;;;29.86;37.76;95381.09;10462532;28;2092;-81
2021/06/28 15:08:19;;;;;;;;;;;31.00;75.20;;;30.13;37.02;95384.03;10437317;28;2056;-82
2021/06/28 15:13:22;;;;;;;;;;;30.90;75.00;;;29.94;36.98;95375.47;10464596;28;1864;-82
2021/06/28 15:18:24;;;;;;;;;;;31.00;74.60;;;29.70;37.53;95374.47;10462109;28;2034;-82
2021/06/28 15:23:27;;;;;;;;;;;31.00;74.20;;;29.37;38.16;95371.09;10461851;28;1825;-79
2021/06/28 15:28:40;;;;;;;;;;;30.40;74.70;;;29.24;36.95;95361.69;10461736;28;2109;-80
2021/06/28 15:33:57;;;;;;;;;;;30.30;73.80;;;29.28;36.91;95359.72;10446477;28;2108;-81
2021/06/28 15:39:00;;;;;;;;;;;30.20;73.80;;;29.88;35.56;95350.97;10456171;28;2304;-80
2021/06/28 15:44:03;;;;;;;;;;;30.60;72.70;;;30.27;34.10;95354.63;10464630;28;2092;-81
2021/06/28 15:49:06;;;;;;;;;;;30.90;71.10;;;30.06;34.09;95353.59;10457533;28;2224;-81
2021/06/28 15:54:08;;;;;;;;;;;31.00;70.50;;;29.45;35.91;95339.41;10459866;28;2206;-81
2021/06/28 15:59:11;;;;;;;;;;;30.80;71.10;;;29.59;36.57;95328.28;10450448;28;2210;-80
2021/06/28 16:04:14;;;;;;;;;;;30.50;72.60;;;29.75;36.62;95313.09;10452718;28;2134;-80
2021/06/28 16:09:16;;;;;;;;;;;30.50;73.50;;;29.03;36.45;95315.56;10455545;28;2118;-81
2021/06/28 16:14:23;;;;;;;;;;;30.10;72.50;;;28.95;37.61;95295.47;10455816;28;2147;-81
2021/06/28 16:19:25;;;;;;;;;;;29.80;73.50;;;29.04;37.67;95286.69;10458325;28;2138;-81
2021/06/28 16:24:48;;;;;;;;;;;29.80;73.70;;;28.79;38.71;95275.75;10459634;28;2288;-79
2021/06/28 16:29:51;;;;;;;;;;;29.80;74.50;;;28.79;38.77;95257.16;10468181;28;2292;-80
2021/06/28 16:34:54;;;;;;;;;;;29.70;75.30;;;28.64;38.48;95238.31;10478747;28;2265;-82
2021/06/28 16:39:57;;;;;;;;;;;29.60;74.60;;;28.21;40.04;95253.06;10461429;28;1943;-80
2021/06/28 16:44:59;;;;;;;;;;;29.30;75.60;;;28.37;39.92;95238.81;10460135;28;2100;-80
2021/06/28 16:50:02;;;;;;;;;;;29.20;76.50;;;28.23;39.67;95236.84;10463086;28;1853;-82
2021/06/28 16:55:05;;;;;;;;;;;29.10;76.10;;;28.47;39.63;95232.44;10465123;28;2053;-81
2021/06/28 17:00:07;;;;;;;;;;;29.10;76.50;;;28.43;40.33;95233.66;10451432;28;2124;-82
2021/06/28 17:05:10;;;;;;;;;;;29.20;77.00;;;28.43;41.09;95230.88;10467561;28;2091;-81
2021/06/28 17:10:27;;;;;;;;;;;29.20;78.00;;;28.09;42.01;95222.31;10462973;28;2036;-80
2021/06/28 17:15:30;;;;;;;;;;;29.00;78.70;;;27.97;42.86;95221.56;10479466;28;2054;-79
2021/06/28 17:20:32;;;;;;;;;;;28.90;79.10;;;27.79;43.36;95220.03;10480435;28;2162;-84
2021/06/28 17:25:35;;;;;;;;;;;28.70;80.00;;;27.81;43.56;95215.69;10452560;28;2186;-81
2021/06/28 17:30:38;;;;;;;;;;;28.60;80.60;;;27.73;43.96;95217.66;10450016;28;2091;-82
2021/06/28 17:35:40;;;;;;;;;;;28.50;80.90;;;27.67;44.31;95224.75;10466808;28;2019;-81
2021/06/28 17:40:43;;;;;;;;;;;28.50;81.30;;;27.42;44.77;95235.03;10472767;28;1486;-80
2021/06/28 17:45:46;;;;;;;;;;;28.40;81.50;;;27.36;44.52;95231.91;10463433;28;1159;-82
2021/06/28 17:50:49;;;;;;;;;;;28.20;81.60;;;27.22;43.13;95226.34;10453950;28;1494;-81
2021/06/28 17:55:51;;;;;;;;;;;28.10;80.10;;;26.99;42.63;95236.97;10446682;28;1918;-81
2021/06/28 18:00:54;;;;;;;;;;;27.90;78.80;;;26.98;41.91;95246.44;10433545;28;1563;-82
2021/06/28 18:05:57;;;;;;;;;;;27.80;78.30;;;26.84;42.14;95234.19;10468319;28;1569;-80
2021/06/28 18:10:59;;;;;;;;;;;27.70;78.20;;;26.71;41.74;95235.72;10470304;28;1366;-82
2021/06/28 18:16:02;;;;;;;;;;;27.60;77.90;;;26.56;42.07;95231.38;10456025;28;1903;-82
2021/06/28 18:21:07;;;;;;;;;;;27.50;78.20;;;26.31;42.55;95229.28;10446546;28;1493;-81
2021/06/28 18:26:10;;;;;;;;;;;27.30;78.20;;;26.13;42.84;95228.41;10461863;28;1762;-82
2021/06/28 18:31:13;;;;;;;;;;;27.00;78.10;;;25.92;43.19;95212.59;10453730;28;1859;-78
2021/06/28 18:36:16;;;;;;;;;;;26.90;78.00;;;25.80;43.00;95208.19;10464721;28;1948;-78
2021/06/28 18:41:18;;;;;;;;;;;26.80;78.40;;;25.62;43.69;95196.28;10492921;28;1590;-81
2021/06/28 18:46:21;;;;;;;;;;;26.60;78.70;;;25.50;43.84;95196.59;10456941;28;1158;-82
2021/06/28 18:51:24;;;;;;;;;;;26.40;79.30;;;25.36;44.63;95191.00;10468768;28;1446;-82
2021/06/28 18:56:29;;;;;;;;;;;26.30;80.00;;;25.16;45.09;95199.50;10452395;28;1910;-81
2021/06/28 19:01:33;;;;;;;;;;;26.10;80.60;;;25.06;45.42;95191.94;10442306;28;1596;-82
2021/06/28 19:06:36;;;;;;;;;;;26.00;81.00;;;24.92;45.99;95197.31;10448290;28;1137;-82
2021/06/28 19:11:38;;;;;;;;;;;25.80;81.10;;;24.82;46.35;95192.53;10447245;28;1610;-82
2021/06/28 19:16:41;;;;;;;;;;;25.80;81.60;;;24.70;46.75;95188.09;10450995;28;1887;-80
2021/06/28 19:21:44;;;;;;;;;;;25.70;82.10;;;24.56;47.66;95187.94;10449285;28;1527;-82
2021/06/28 19:26:47;;;;;;;;;;;25.60;82.80;;;24.45;48.39;95183.13;10455119;28;1511;-81
2021/06/28 19:31:50;;;;;;;;;;;25.50;83.80;;;24.35;48.74;95169.28;10459842;28;1730;-83
2021/06/28 19:36:55;;;;;;;;;;;25.30;84.50;;;24.30;49.26;95175.06;10491511;28;1891;-83
2021/06/28 19:41:57;;;;;;;;;;;25.20;85.10;;;24.20;49.96;95179.28;10501116;28;1825;-82
2021/06/28 19:47:00;;;;;;;;;;;25.10;86.00;;;24.11;50.57;95190.59;10496090;28;2031;-82
2021/06/28 19:52:03;;;;;;;;;;;25.00;86.70;;;23.99;51.18;95204.56;10490008;28;1323;-80
2021/06/28 19:57:06;;;;;;;;;;;25.00;87.50;;;23.95;51.37;95215.47;10486930;28;2293;-82
2021/06/28 20:02:09;;;;;;;;;;;24.90;87.70;;;23.91;51.68;95213.84;10486407;28;1956;-84
2021/06/28 20:07:12;;;;;;;;;;;24.80;88.10;;;23.87;51.82;95218.50;10501749;28;1506;-79
2021/06/28 20:12:14;;;;;;;;;;;24.80;88.40;;;23.81;52.10;95214.50;10482044;28;2153;-83
2021/06/28 20:17:17;;;;;;;;;;;24.70;88.70;;;23.86;52.25;95205.97;10490229;28;1947;-83
2021/06/28 20:22:20;;;;;;;;;;;24.70;89.30;;;23.77;52.79;95202.69;10483589;28;1474;-83
2021/06/28 20:27:23;;;;;;;;;;;24.70;89.60;;;23.71;53.13;95211.22;10465784;28;1602;-82
2021/06/28 20:32:25;;;;;;;;;;;24.60;90.00;;;23.68;53.45;95203.75;10497090;28;1811;-83
2021/06/28 20:37:28;;;;;;;;;;;24.60;90.50;;;23.67;53.78;95195.91;10494210;28;1891;-83
2021/06/28 20:42:31;;;;;;;;;;;24.60;90.90;;;23.64;54.10;95193.88;10487150;28;1284;-83
2021/06/28 20:47:33;;;;;;;;;;;24.50;91.30;;;23.64;54.13;95222.13;10484483;28;1573;-83
2021/06/28 20:52:36;;;;;;;;;;;24.40;91.60;;;23.67;54.57;95268.03;10487748;28;1379;-82
2021/06/28 20:57:39;;;;;;;;;;;24.50;92.30;;;23.64;57.17;95296.19;10488721;28;1948;-84
2021/06/28 21:02:42;;;;;;;;;;;24.50;94.90;;;23.34;58.52;95306.25;10496516;28;1515;-84
2021/06/28 21:07:44;;;;;;;;;;;24.30;96.50;;;23.34;58.58;95355.63;10490705;28;1025;-81
2021/06/28 21:12:48;;;;;;;;;;;24.10;97.00;;;23.44;57.54;95431.81;10490338;28;1638;-82
2021/06/28 21:17:51;;;;;;;;;;;24.20;96.20;;;23.40;55.77;95463.88;10500357;28;1918;-81
2021/06/28 21:22:54;;;;;;;;;;;24.20;94.30;;;20.91;68.82;95410.31;10480504;28;1562;-81
2021/06/28 21:27:56;;;;;;;;;;;23.10;99.90;;;19.57;77.00;95362.22;10467869;28;1553;-79
2021/06/28 21:32:59;;;;;;;;;;;21.10;99.90;;;18.35;82.53;95380.94;10466780;28;1580;-80
2021/06/28 21:38:02;;;;;;;;;;;19.80;99.90;;;17.95;90.39;95456.72;10445164;28;1910;-81
2021/06/28 21:43:24;;;;;;;;;;;19.20;99.90;;;17.76;93.54;95558.53;10457064;28;1363;-81
2021/06/28 21:48:28;;;;;;;;;;;18.80;99.90;;;17.47;95.11;95498.59;10448696;28;1594;-81
2021/06/28 21:53:31;;;;;;;;;;;18.60;99.90;;;16.59;100.00;95442.78;10465916;28;1893;-79
2021/06/28 21:58:34;;;;;;;;;;;17.80;99.90;;;16.71;100.00;95445.69;10466298;28;1926;-81
2021/06/28 22:03:36;;;;;;;;;;;17.50;99.90;;;16.87;100.00;95431.63;10456185;28;1609;-81
2021/06/28 22:08:40;;;;;;;;;;;17.70;99.90;;;17.04;100.00;95404.44;10446817;28;2044;-80
2021/06/28 22:13:43;;;;;;;;;;;17.70;99.90;;;17.23;100.00;95472.75;10453354;28;2038;-80
2021/06/28 22:18:46;;;;;;;;;;;17.90;99.90;;;17.35;100.00;95495.75;10455083;28;1977;-81
2021/06/28 22:23:48;;;;;;;;;;;18.10;99.90;;;17.26;100.00;95531.09;10459095;28;1661;-80
2021/06/28 22:28:51;;;;;;;;;;;18.10;99.90;;;17.33;100.00;95539.56;10459357;28;2101;-81
2021/06/28 22:33:54;;;;;;;;;;;18.10;99.90;;;17.34;100.00;95537.63;10457755;28;2048;-80
2021/06/28 22:38:56;;;;;;;;;;;18.20;99.90;;;17.43;100.00;95531.06;10453277;28;2176;-80
2021/06/28 22:43:59;;;;;;;;;;;18.30;99.90;;;17.45;100.00;95533.47;10462711;28;2073;-80
2021/06/28 22:49:02;;;;;;;;;;;18.30;99.90;;;17.41;100.00;95543.38;10453481;28;1916;-82
2021/06/28 22:54:04;;;;;;;;;;;18.30;99.90;;;17.38;100.00;95544.03;10472829;28;1915;-80
2021/06/28 22:59:07;;;;;;;;;;;18.30;99.90;;;17.23;100.00;95556.97;10472768;28;1952;-80
2021/06/28 23:04:10;;;;;;;;;;;18.20;99.90;;;17.10;100.00;95555.22;10482402;28;1785;-81
2021/06/28 23:09:13;;;;;;;;;;;18.00;99.90;;;16.96;100.00;95560.03;10461797;28;2026;-80
2021/06/28 23:14:15;;;;;;;;;;;17.90;99.90;;;16.91;100.00;95557.47;10460215;28;2056;-79
2021/06/28 23:19:18;;;;;;;;;;;17.80;99.90;;;16.86;100.00;95571.19;10469146;28;2068;-81